createdAt,value
2022-10-08T00:00:37.762Z,16.83
2022-10-08T00:05:45.782Z,11.30
2022-10-08T00:10:55.091Z,16.77
2022-10-08T00:16:04.583Z,17.47
2022-10-08T00:21:16.166Z,14.17
2022-10-08T00:26:28.066Z,14.77
2022-10-08T00:31:37.522Z,19.50
2022-10-08T00:36:45.560Z,20.40
2022-10-08T00:41:55.163Z,23.37
2022-10-08T00:47:03.520Z,19.97
2022-10-08T00:52:11.376Z,19.77
2022-10-08T00:57:20.593Z,18.50
2022-10-08T01:02:28.599Z,16.97
2022-10-08T01:07:39.883Z,23.10
2022-10-08T01:12:51.331Z,19.80
2022-10-08T01:18:03.240Z,17.33
2022-10-08T01:23:14.277Z,16.93
2022-10-08T01:28:25.515Z,17.13
2022-10-08T01:33:36.947Z,14.37
2022-10-08T01:38:46.638Z,13.60
2022-10-08T01:43:58.997Z,12.63
2022-10-08T01:49:11.509Z,12.57
2022-10-08T01:54:19.540Z,11.23
2022-10-08T01:59:31.755Z,10.67
2022-10-08T02:04:39.560Z,10.87
2022-10-08T02:09:49.388Z,12.17
2022-10-08T02:14:58.778Z,11.37
2022-10-08T02:20:11.380Z,10.57
2022-10-08T02:25:22.450Z,13.37
2022-10-08T02:30:33.091Z,14.53
2022-10-08T02:35:43.754Z,9.13
2022-10-08T02:40:53.534Z,13.73
2022-10-08T02:46:04.609Z,10.47
2022-10-08T02:51:14.640Z,11.60
2022-10-08T02:56:26.060Z,10.20
2022-10-08T03:06:48.464Z,12.37
2022-10-08T03:11:56.386Z,9.53
2022-10-08T03:17:04.326Z,11.67
2022-10-08T03:22:12.749Z,10.03
2022-10-08T03:27:21.687Z,16.60
2022-10-08T03:32:29.519Z,12.50
2022-10-08T03:37:38.471Z,12.37
2022-10-08T03:42:47.648Z,21.30
2022-10-08T03:47:56.555Z,13.50
2022-10-08T03:53:04.477Z,13.57
2022-10-08T03:58:12.497Z,12.27
2022-10-08T04:03:20.622Z,11.67
2022-10-08T04:08:28.513Z,10.17
2022-10-08T04:13:36.899Z,10.63
2022-10-08T04:18:45.009Z,14.73
2022-10-08T04:23:53.001Z,10.63
2022-10-08T04:29:00.854Z,11.43
2022-10-08T04:34:10.682Z,11.07
2022-10-08T04:39:18.611Z,12.53
2022-10-08T04:44:26.985Z,16.40
2022-10-08T04:49:35.126Z,12.93
2022-10-08T04:54:43.438Z,14.43
2022-10-08T05:00:16.609Z,15.70
2022-10-08T05:05:01.121Z,15.90
2022-10-08T05:10:09.555Z,14.33
2022-10-08T05:15:17.992Z,18.07
2022-10-08T05:20:25.985Z,12.53
2022-10-08T05:25:34.519Z,13.17
2022-10-08T05:30:42.381Z,14.53
2022-10-08T05:35:50.331Z,15.33
2022-10-08T05:41:01.458Z,13.03
2022-10-08T05:46:09.552Z,16.37
2022-10-08T05:51:18.062Z,14.30
2022-10-08T05:56:26.388Z,16.17
2022-10-08T06:01:34.885Z,20.77
2022-10-08T06:06:43.801Z,15.47
2022-10-08T06:11:53.021Z,15.47
2022-10-08T06:17:00.906Z,14.90
2022-10-08T06:22:08.936Z,15.13
2022-10-08T06:27:17.062Z,19.90
2022-10-08T06:32:25.082Z,15.83
2022-10-08T06:37:33.109Z,19.43
2022-10-08T06:42:40.975Z,21.73
2022-10-08T06:47:49.842Z,18.43
2022-10-08T06:52:58.006Z,19.20
2022-10-08T06:58:05.993Z,17.10
2022-10-08T07:03:14.225Z,17.03
2022-10-08T07:08:22.931Z,22.27
2022-10-08T07:13:31.473Z,18.13
2022-10-08T07:18:40.005Z,26.57
2022-10-08T07:23:48.095Z,18.70
2022-10-08T07:28:59.839Z,14.37
2022-10-08T07:34:13.489Z,15.73
2022-10-08T07:39:21.753Z,20.73
2022-10-08T07:44:29.914Z,19.53
2022-10-08T07:49:37.973Z,16.60
2022-10-08T07:54:45.792Z,16.50
2022-10-08T07:59:53.825Z,13.93
2022-10-08T08:05:01.793Z,18.10
2022-10-08T08:10:10.380Z,15.57
2022-10-08T08:15:18.470Z,18.60
2022-10-08T08:20:26.346Z,15.30
2022-10-08T08:25:36.862Z,19.60
2022-10-08T08:30:44.766Z,14.00
2022-10-08T08:35:55.826Z,18.73
2022-10-08T08:41:12.682Z,15.87
2022-10-08T08:46:21.674Z,15.73
2022-10-08T08:51:29.610Z,16.17
2022-10-08T08:56:37.480Z,20.37
2022-10-08T09:01:46.289Z,14.10
2022-10-08T09:06:54.212Z,14.30
2022-10-08T09:12:03.674Z,14.87
2022-10-08T09:17:14.863Z,12.20
2022-10-08T09:22:25.597Z,18.30
2022-10-08T09:27:36.716Z,12.30
2022-10-08T09:32:44.917Z,15.70
2022-10-08T09:37:53.499Z,16.07
2022-10-08T09:43:04.512Z,16.23
2022-10-08T09:48:15.533Z,21.87
2022-10-08T09:53:24.593Z,14.07
2022-10-08T09:58:34.707Z,16.97
2022-10-08T10:03:45.180Z,17.30
2022-10-08T10:08:57.049Z,13.70
2022-10-08T10:14:08.018Z,17.10
2022-10-08T10:19:19.113Z,19.40
2022-10-08T10:24:30.175Z,13.00
2022-10-08T10:29:41.205Z,18.33
2022-10-08T10:34:51.445Z,11.00
2022-10-08T10:40:02.448Z,18.00
2022-10-08T10:45:13.505Z,15.77
2022-10-08T10:50:25.068Z,23.10
2022-10-08T10:55:36.162Z,19.70
2022-10-08T11:00:47.230Z,14.40
2022-10-08T11:05:59.312Z,12.90
2022-10-08T11:11:10.460Z,19.50
2022-10-08T11:16:22.943Z,20.40
2022-10-08T11:21:34.055Z,14.30
2022-10-08T11:26:45.417Z,21.43
2022-10-08T11:31:53.442Z,14.87
2022-10-08T11:37:04.340Z,20.73
2022-10-08T11:42:15.384Z,16.17
2022-10-08T11:47:26.431Z,19.23
2022-10-08T11:52:35.521Z,14.40
2022-10-08T11:58:06.565Z,16.07
2022-10-08T12:02:54.842Z,23.57
2022-10-08T12:08:04.165Z,14.27
2022-10-08T12:13:17.894Z,18.17
2022-10-08T12:18:29.723Z,13.83
2022-10-08T12:23:39.674Z,17.10
2022-10-08T12:28:50.934Z,13.13
2022-10-08T12:34:01.609Z,15.63
2022-10-08T12:44:28.577Z,14.20
2022-10-08T12:49:41.219Z,12.53
2022-10-08T12:54:52.062Z,13.97
2022-10-08T13:00:00.743Z,15.70
2022-10-08T13:05:11.782Z,15.13
2022-10-08T13:10:22.355Z,15.67
2022-10-08T13:15:31.988Z,19.60
2022-10-08T13:20:40.246Z,18.70
2022-10-08T13:25:48.370Z,16.60
2022-10-08T13:30:58.313Z,18.83
2022-10-08T13:36:06.358Z,23.23
2022-10-08T13:41:17.517Z,18.93
2022-10-08T13:46:25.627Z,20.27
2022-10-08T13:51:33.914Z,18.07
2022-10-08T13:56:41.835Z,22.47
2022-10-08T14:01:49.812Z,23.67
2022-10-08T14:06:58.121Z,20.90
2022-10-08T14:12:06.094Z,22.67
2022-10-08T14:17:15.040Z,24.57
2022-10-08T14:22:23.002Z,24.13
2022-10-08T14:27:31.252Z,27.33
2022-10-08T14:32:39.335Z,27.67
2022-10-08T14:37:48.122Z,26.90
2022-10-08T14:42:56.273Z,27.23
2022-10-08T14:48:04.141Z,26.90
2022-10-08T14:53:13.465Z,21.60
2022-10-08T14:58:23.185Z,24.63
2022-10-08T15:03:31.331Z,25.63
2022-10-08T15:08:41.016Z,23.97
2022-10-08T15:13:49.063Z,22.17
2022-10-08T15:18:57.470Z,23.00
2022-10-08T15:24:06.552Z,23.90
2022-10-08T15:29:14.509Z,24.33
2022-10-08T15:34:22.748Z,24.83
2022-10-08T15:39:35.672Z,22.17
2022-10-08T15:44:42.231Z,20.17
2022-10-08T15:49:51.132Z,16.23
2022-10-08T15:54:58.995Z,20.47
2022-10-08T16:00:07.291Z,19.57
2022-10-08T16:05:15.868Z,22.20
2022-10-08T16:10:23.894Z,16.70
2022-10-08T16:15:34.989Z,24.43
2022-10-08T16:20:42.976Z,14.93
2022-10-08T16:25:51.223Z,17.63
2022-10-08T16:31:00.169Z,16.17
2022-10-08T16:36:09.181Z,9.43
2022-10-08T16:41:20.315Z,17.63
2022-10-08T16:46:30.487Z,15.13
2022-10-08T16:51:38.920Z,15.33
2022-10-08T16:56:47.417Z,10.87
2022-10-08T17:01:56.541Z,15.60
2022-10-08T17:07:04.842Z,12.43
2022-10-08T17:12:12.723Z,13.13
2022-10-08T17:17:20.768Z,10.97
2022-10-08T17:22:28.807Z,7.00
2022-10-08T17:27:37.617Z,9.03
2022-10-08T17:32:46.888Z,7.63
2022-10-08T17:37:55.142Z,9.23
2022-10-08T17:43:03.990Z,10.13
2022-10-08T17:48:13.096Z,9.27
2022-10-08T17:53:20.914Z,14.87
2022-10-08T17:58:31.323Z,6.07
2022-10-08T18:03:40.517Z,6.53
2022-10-08T18:08:48.816Z,6.03
2022-10-08T18:13:56.848Z,7.27
2022-10-08T18:19:09.036Z,5.00
2022-10-08T18:24:18.042Z,11.07
2022-10-08T18:29:26.185Z,7.20
2022-10-08T18:34:35.819Z,8.13
2022-10-08T18:39:43.820Z,11.00
2022-10-08T18:44:51.699Z,9.63
2022-10-08T18:49:59.803Z,7.73
2022-10-08T18:55:09.762Z,10.97
2022-10-08T19:00:17.949Z,10.10
2022-10-08T19:05:26.901Z,10.30
2022-10-08T19:10:34.896Z,9.53
2022-10-08T19:15:43.022Z,13.27
2022-10-08T19:20:51.109Z,8.70
2022-10-08T19:25:59.687Z,9.40
2022-10-08T19:31:11.329Z,10.07
2022-10-08T19:36:22.065Z,12.00
2022-10-08T19:41:31.243Z,9.40
2022-10-08T19:46:40.008Z,8.63
2022-10-08T19:51:48.262Z,7.00
2022-10-08T19:57:02.536Z,7.10
2022-10-08T20:02:11.889Z,10.70
2022-10-08T20:07:21.092Z,6.97
2022-10-08T20:12:29.675Z,8.43
2022-10-08T20:17:38.079Z,6.07
2022-10-08T20:22:46.826Z,5.67
2022-10-08T20:27:57.534Z,6.70
2022-10-08T20:33:05.686Z,4.47
2022-10-08T20:38:13.670Z,10.47
2022-10-08T20:43:21.931Z,9.03
2022-10-08T20:48:33.091Z,12.37
2022-10-08T20:53:41.079Z,7.03
2022-10-08T20:58:49.192Z,10.93
2022-10-08T21:03:57.985Z,6.17
2022-10-08T21:09:05.987Z,7.90
2022-10-08T21:14:16.292Z,10.33
2022-10-08T21:19:24.298Z,5.77
2022-10-08T21:24:32.310Z,7.77
2022-10-08T21:29:40.837Z,10.97
2022-10-08T21:34:48.863Z,7.73
2022-10-08T21:39:57.115Z,8.70
2022-10-08T21:45:05.393Z,9.03
2022-10-08T21:50:13.720Z,12.00
2022-10-08T21:55:21.685Z,8.50
2022-10-08T22:00:32.472Z,9.57
2022-10-08T22:05:40.872Z,12.97
2022-10-08T22:10:49.839Z,11.60
2022-10-08T22:15:59.101Z,10.47
2022-10-08T22:21:09.668Z,11.87
2022-10-08T22:26:20.238Z,9.93
2022-10-08T22:31:30.413Z,6.73
2022-10-08T22:36:41.261Z,12.90
2022-10-08T22:41:50.107Z,12.17
2022-10-08T22:46:58.012Z,11.23
2022-10-08T22:52:06.207Z,17.63
2022-10-08T22:57:14.543Z,8.07
2022-10-08T23:02:22.659Z,8.67
2022-10-08T23:07:32.067Z,8.23
2022-10-08T23:12:39.894Z,8.27
2022-10-08T23:17:48.019Z,5.67
2022-10-08T23:22:56.438Z,7.97
2022-10-08T23:28:04.347Z,6.93
2022-10-08T23:33:12.417Z,7.67
2022-10-08T23:38:20.434Z,11.27
2022-10-08T23:43:29.528Z,3.30
2022-10-08T23:48:37.510Z,5.47
2022-10-08T23:53:45.883Z,10.37
2022-10-08T23:58:53.802Z,6.73
